メインページ
METAR-TAF:

METAR-TAF

空港 :

ストックホルム・アーランダ空港

ストックホルム・アーランダ, スウェーデン

緯度: 59-39N, 経度: 017-57E, 海抜: 38m

現時点の気象観測

当レポートは27分前の05:20(UTC)に作成
南西の風 8kt
気温 3°C
湿度 81%
気圧 1017 hPa
視程10km以上
1,500メートル以下は雲なし、積乱雲なし

METAR: ESSA 210520Z 22008KT CAVOK 03/00 Q1017 R01L/19//95 R08/19//95 R01R/19//95 NOSIG

時間: 06:47 (05:47 UTC)

予報

当レポートは17分前の05:30(UTC)に作成
予報は21日の 06時(UTC)から 22日の 06時(UTC)まで有効
西/南西の風 10kt
視程10km以上
1,500メートル以下は雲なし、積乱雲なし
確率 40%
21日の 06時(UTC)から 21日の 08時(UTC)まで
視程: 4000m
小雨
確率 40%
21日の 08時(UTC)から 21日の 12時(UTC)まで
視程: 4000m
高度800ftの千切れ雲あり

TAF: ESSA 210530Z 2106/2206 25010KT CAVOK PROB40 2106/2108 4000 -RA PROB40 2108/2112 4000 RA BKN008

4,000以上の空港の気象観測と天気予報(METAR報とTAF報)

利用可能な観測所は地図上に黄色い丸と赤い丸で示す。

丸の上にカーソルを重ねると観測所名を参照できる。

次にクリックすると気象観測と天気予報を参照できる。

マップの切り替え:黒色「×」印の緑ボタンをクリックして拡大、「-」印の緑ボタンをクリックして縮小、緑色の三角印をクリックして隣りの地図に切り替え


METAR-TAF: